createdAt,value
2023-01-25T00:04:24.647Z,49.00
2023-01-25T00:09:40.031Z,49.10
2023-01-25T00:14:55.682Z,49.70
2023-01-25T00:20:10.567Z,49.80
2023-01-25T00:25:25.638Z,49.70
2023-01-25T00:30:40.700Z,49.90
2023-01-25T00:35:55.627Z,49.70
2023-01-25T00:41:10.642Z,49.50
2023-01-25T00:46:25.636Z,49.60
2023-01-25T00:51:40.659Z,49.60
2023-01-25T00:56:55.703Z,49.70
2023-01-25T01:02:10.621Z,49.70
2023-01-25T01:07:26.662Z,49.50
2023-01-25T01:12:42.011Z,49.40
2023-01-25T01:17:57.679Z,49.40
2023-01-25T01:23:12.640Z,49.80
2023-01-25T01:28:27.602Z,49.50
2023-01-25T01:33:43.005Z,49.60
2023-01-25T01:38:58.923Z,49.10
2023-01-25T01:44:14.619Z,49.00
2023-01-25T01:49:34.696Z,48.70
2023-01-25T01:54:56.598Z,48.40
2023-01-25T02:00:11.666Z,48.20
2023-01-25T02:05:26.703Z,47.90
2023-01-25T02:10:41.582Z,47.90
2023-01-25T02:15:56.503Z,48.40
2023-01-25T02:21:11.961Z,48.30
2023-01-25T02:26:27.604Z,48.10
2023-01-25T02:31:42.755Z,48.40
2023-01-25T02:36:57.627Z,49.00
2023-01-25T02:42:12.624Z,48.90
2023-01-25T02:47:27.633Z,48.90
2023-01-25T02:52:43.608Z,49.00
2023-01-25T02:57:58.654Z,48.70
2023-01-25T03:03:15.921Z,48.40
2023-01-25T03:08:31.464Z,48.00
2023-01-25T03:13:47.035Z,48.40
2023-01-25T03:19:03.631Z,48.90
2023-01-25T03:24:19.704Z,49.20
2023-01-25T03:29:34.670Z,48.30
2023-01-25T03:34:54.618Z,48.50
2023-01-25T03:40:10.605Z,48.60
2023-01-25T03:45:31.673Z,48.70
2023-01-25T03:50:47.615Z,48.70
2023-01-25T03:56:02.631Z,48.50
2023-01-25T04:01:18.667Z,48.50
2023-01-25T04:06:34.629Z,48.60
2023-01-25T04:11:50.047Z,48.60
2023-01-25T04:17:05.395Z,48.80
2023-01-25T04:22:28.668Z,49.10
2023-01-25T04:27:44.419Z,48.90
2023-01-25T04:32:59.718Z,48.70
2023-01-25T04:38:14.659Z,48.80
2023-01-25T04:43:32.957Z,49.20
2023-01-25T04:48:51.676Z,48.50
2023-01-25T04:54:07.689Z,48.20
2023-01-25T04:59:22.403Z,47.90
2023-01-25T05:04:37.598Z,47.90
2023-01-25T05:09:52.634Z,47.90
2023-01-25T05:15:08.958Z,47.80
2023-01-25T05:20:24.991Z,47.70
2023-01-25T05:25:41.618Z,47.60
2023-01-25T05:31:00.681Z,47.50
2023-01-25T05:36:16.623Z,47.50
2023-01-25T05:41:31.632Z,47.50
2023-01-25T05:46:46.649Z,47.50
2023-01-25T05:52:01.655Z,47.30
2023-01-25T05:57:16.683Z,47.30
2023-01-25T06:02:31.798Z,47.20
2023-01-25T06:07:46.631Z,47.10
2023-01-25T06:13:04.884Z,47.10
2023-01-25T06:18:21.669Z,47.00
2023-01-25T06:24:05.713Z,46.90
2023-01-25T06:29:20.750Z,46.80
2023-01-25T06:34:35.903Z,46.80
2023-01-25T06:39:58.705Z,46.80
2023-01-25T06:45:14.014Z,46.60
2023-01-25T06:50:29.652Z,46.40
2023-01-25T06:55:44.676Z,46.30
2023-01-25T07:00:59.702Z,46.20
2023-01-25T07:06:14.650Z,46.00
2023-01-25T07:11:29.403Z,45.90
2023-01-25T07:16:44.680Z,45.90
2023-01-25T07:21:59.381Z,45.90
2023-01-25T07:27:14.997Z,46.00
2023-01-25T07:32:30.696Z,45.80
2023-01-25T07:37:45.657Z,45.70
2023-01-25T07:43:00.671Z,45.60
2023-01-25T07:48:17.983Z,45.50
2023-01-25T07:53:33.671Z,45.50
2023-01-25T07:58:48.684Z,45.40
2023-01-25T08:04:03.691Z,45.60
2023-01-25T08:09:18.665Z,45.40
2023-01-25T08:14:33.651Z,45.20
2023-01-25T08:19:49.016Z,44.80
2023-01-25T08:25:04.461Z,44.50
2023-01-25T08:30:19.648Z,44.30
2023-01-25T08:35:34.659Z,44.50
2023-01-25T08:40:49.660Z,44.60
2023-01-25T08:46:04.990Z,44.60
2023-01-25T08:51:20.662Z,44.80
2023-01-25T08:56:36.041Z,44.80
2023-01-25T09:01:51.662Z,44.80
2023-01-25T09:07:06.961Z,44.80
2023-01-25T09:12:22.761Z,45.40
2023-01-25T09:17:37.636Z,44.80
2023-01-25T09:22:52.989Z,44.80
2023-01-25T09:28:09.020Z,44.80
2023-01-25T09:33:25.436Z,44.80
2023-01-25T09:38:40.735Z,44.80
2023-01-25T09:43:56.780Z,44.80
2023-01-25T09:49:12.564Z,44.80
2023-01-25T09:54:28.519Z,44.60
2023-01-25T09:59:44.659Z,44.70
2023-01-25T10:04:59.999Z,44.40
2023-01-25T10:10:15.731Z,44.40
2023-01-25T10:15:32.041Z,45.10
2023-01-25T10:20:47.989Z,44.30
2023-01-25T10:26:03.720Z,43.90
2023-01-25T10:31:19.157Z,43.90
2023-01-25T10:36:36.744Z,44.00
2023-01-25T10:41:52.677Z,44.00
2023-01-25T10:47:07.945Z,44.10
2023-01-25T10:52:23.696Z,44.10
2023-01-25T10:57:38.723Z,44.20
2023-01-25T11:02:53.506Z,44.20
2023-01-25T11:08:08.668Z,44.20
2023-01-25T11:13:23.702Z,44.20
2023-01-25T11:18:38.718Z,44.20
2023-01-25T11:23:53.701Z,44.20
2023-01-25T11:29:08.712Z,44.20
2023-01-25T11:34:23.664Z,44.20
2023-01-25T11:39:38.714Z,44.20
2023-01-25T11:44:53.776Z,44.20
2023-01-25T11:50:09.160Z,44.20
2023-01-25T11:55:24.679Z,44.20
2023-01-25T12:00:39.585Z,44.10
2023-01-25T12:05:54.662Z,44.20
2023-01-25T12:11:09.722Z,44.20
2023-01-25T12:16:24.466Z,44.10
2023-01-25T12:21:40.020Z,44.10
2023-01-25T12:26:55.992Z,44.00
2023-01-25T12:32:11.675Z,44.00
2023-01-25T12:37:26.733Z,43.90
2023-01-25T12:42:41.713Z,43.70
2023-01-25T12:47:56.437Z,43.60
2023-01-25T12:53:11.741Z,43.50
2023-01-25T12:58:37.330Z,43.60
2023-01-25T13:03:52.728Z,43.60
2023-01-25T13:09:07.809Z,43.50
2023-01-25T13:14:22.721Z,43.50
2023-01-25T13:19:38.915Z,43.60
2023-01-25T13:24:54.671Z,43.60
2023-01-25T13:30:10.052Z,43.40
2023-01-25T13:35:26.041Z,43.50
2023-01-25T13:40:41.673Z,43.50
2023-01-25T13:45:56.730Z,43.40
2023-01-25T13:51:12.039Z,43.40
2023-01-25T13:56:27.674Z,43.30
2023-01-25T14:01:42.741Z,43.30
2023-01-25T14:06:58.054Z,43.20
2023-01-25T14:12:13.650Z,43.30
2023-01-25T14:17:28.683Z,43.20
2023-01-25T14:22:43.683Z,43.10
2023-01-25T14:27:59.047Z,43.10
2023-01-25T14:33:14.657Z,43.00
2023-01-25T14:38:29.507Z,43.00
2023-01-25T14:43:44.883Z,43.10
2023-01-25T14:49:00.636Z,43.10
2023-01-25T14:54:15.676Z,43.10
2023-01-25T14:59:30.677Z,43.00
2023-01-25T15:04:45.689Z,43.00
2023-01-25T15:10:00.705Z,43.00
2023-01-25T15:15:15.726Z,43.10
2023-01-25T15:20:30.525Z,42.80
2023-01-25T15:25:45.712Z,42.80
2023-01-25T15:31:00.765Z,42.80
2023-01-25T15:36:15.698Z,42.80
2023-01-25T15:41:30.667Z,42.80
2023-01-25T15:46:45.735Z,42.80
2023-01-25T15:52:00.735Z,42.80
2023-01-25T15:57:15.717Z,42.80
2023-01-25T16:02:31.075Z,42.80
2023-01-25T16:07:46.704Z,42.60
2023-01-25T16:13:01.688Z,42.60
2023-01-25T16:18:16.744Z,42.60
2023-01-25T16:23:31.679Z,42.60
2023-01-25T16:28:46.689Z,42.60
2023-01-25T16:34:02.079Z,42.50
2023-01-25T16:39:16.705Z,42.40
2023-01-25T16:44:31.674Z,42.30
2023-01-25T16:49:46.704Z,42.30
2023-01-25T16:55:01.507Z,42.40
2023-01-25T17:00:16.412Z,42.50
2023-01-25T17:05:34.086Z,42.60
2023-01-25T17:10:49.720Z,42.60
2023-01-25T17:16:04.760Z,42.50
2023-01-25T17:21:19.724Z,42.40
2023-01-25T17:26:35.033Z,42.40
2023-01-25T17:31:51.208Z,42.00
2023-01-25T17:37:06.698Z,41.90
2023-01-25T17:42:22.068Z,41.80
2023-01-25T17:47:38.213Z,41.50
2023-01-25T17:52:54.089Z,41.50
2023-01-25T17:58:09.731Z,41.70
2023-01-25T18:03:24.777Z,41.90
2023-01-25T18:08:40.067Z,42.10
2023-01-25T18:13:55.759Z,42.30
2023-01-25T18:19:10.695Z,42.50
2023-01-25T18:24:26.475Z,42.60
2023-01-25T18:29:42.027Z,42.70
2023-01-25T18:34:57.680Z,42.70
2023-01-25T18:40:13.691Z,42.80
2023-01-25T18:45:28.694Z,42.90
2023-01-25T18:50:43.735Z,42.90
2023-01-25T18:55:58.699Z,42.90
2023-01-25T19:01:13.679Z,42.90
2023-01-25T19:06:29.115Z,43.00
2023-01-25T19:11:44.440Z,43.00
2023-01-25T19:16:59.711Z,43.00
2023-01-25T19:22:14.491Z,43.00
2023-01-25T19:27:29.728Z,43.00
2023-01-25T19:32:45.023Z,43.00
2023-01-25T19:38:01.054Z,43.00
2023-01-25T19:43:16.743Z,43.00
2023-01-25T19:48:31.478Z,42.90
2023-01-25T19:53:46.779Z,42.90
2023-01-25T19:59:01.777Z,42.90
2023-01-25T20:04:16.491Z,42.80
2023-01-25T20:09:31.748Z,42.80
2023-01-25T20:14:46.890Z,42.80
2023-01-25T20:20:02.091Z,42.70
2023-01-25T20:25:18.079Z,42.70
2023-01-25T20:30:33.702Z,42.70
2023-01-25T20:35:48.762Z,42.70
2023-01-25T20:41:04.174Z,42.70
2023-01-25T20:46:20.138Z,42.50
2023-01-25T20:51:35.742Z,42.40
2023-01-25T20:56:51.038Z,41.80
2023-01-25T21:02:06.815Z,41.80
2023-01-25T21:07:22.096Z,41.60
2023-01-25T21:12:38.078Z,41.40
2023-01-25T21:17:53.499Z,41.30
2023-01-25T21:23:08.745Z,41.30
2023-01-25T21:28:24.022Z,41.20
2023-01-25T21:33:40.006Z,41.00
2023-01-25T21:38:56.015Z,41.00
2023-01-25T21:44:11.739Z,40.80
2023-01-25T21:49:27.071Z,41.00
2023-01-25T21:54:42.705Z,41.00
2023-01-25T21:59:57.714Z,40.90
2023-01-25T22:05:12.743Z,41.00
2023-01-25T22:10:28.024Z,40.70
2023-01-25T22:15:44.033Z,40.60
2023-01-25T22:20:59.736Z,40.60
2023-01-25T22:26:15.025Z,40.80
2023-01-25T22:31:30.771Z,40.70
2023-01-25T22:36:45.790Z,40.80
2023-01-25T22:42:00.770Z,40.80
2023-01-25T22:47:15.695Z,40.70
2023-01-25T22:52:30.756Z,40.80
2023-01-25T22:57:45.750Z,40.80
2023-01-25T23:03:00.707Z,41.40
2023-01-25T23:08:16.092Z,42.10
2023-01-25T23:13:31.511Z,42.50
2023-01-25T23:18:46.759Z,42.80
2023-01-25T23:24:01.824Z,42.90
2023-01-25T23:29:17.016Z,43.10
2023-01-25T23:34:32.738Z,43.30
2023-01-25T23:39:47.729Z,43.40
2023-01-25T23:45:02.686Z,43.20
2023-01-25T23:50:17.721Z,43.00
2023-01-25T23:55:33.048Z,42.80
